logo tempoitalia

Diretta Meteo Pecs-Pogany, Ungherialunedì 31 agosto ore 06:45

Mappa
Sereno 20 °C Sereno 24 Ore: T.min 20 T.max 31
Ponente Est/Nord-Est Km/h 9.3 Punto di rugiada: 11 °C Umidità: 56% Visibilità: 10 Km
Il sole sorge alle: 06:06 Il sole tramonta alle: 19:28
31 Agosto 2026 06:45 tempo osservato: Sereno Sereno 20 56 1015 vento: Nord E/NE 9.3
31 Agosto 2026 06:15 tempo osservato: Sereno Sereno 20 56 1015 vento: Nord E 9.3
31 Agosto 2026 05:45 tempo osservato: Sereno Sereno 21 52 1015 vento: Nord E 11.1
31 Agosto 2026 05:15 tempo osservato: Sereno Sereno 20 56 1015 vento: Nord E 9.3
31 Agosto 2026 04:45 tempo osservato: Sereno Sereno 20 56 1015 vento: Nord E 7.4
31 Agosto 2026 04:15 tempo osservato: Sereno Sereno 21 52 1015 vento: Nord E/NE 9.3
31 Agosto 2026 03:45 tempo osservato: Sereno Sereno 22 49 1015 vento: Nord NE 9.3
31 Agosto 2026 03:15 tempo osservato: Sereno Sereno 21 52 1015 vento: Nord NE 9.3
31 Agosto 2026 02:45 tempo osservato: Sereno Sereno 20 56 1016 vento: Nord N 5.5
31 Agosto 2026 02:15 tempo osservato: Sereno Sereno 20 59 1016 vento: Nord NE 7.4
31 Agosto 2026 01:45 tempo osservato: Sereno Sereno 20 59 1016 vento: Nord NE 7.4
31 Agosto 2026 01:15 tempo osservato: Sereno Sereno 21 52 1016 vento: Nord NE 7.4
31 Agosto 2026 00:45 tempo osservato: Sereno Sereno 21 56 1016 vento: Nord NE 7.4
31 Agosto 2026 00:15 tempo osservato: Sereno Sereno 22 53 1016 vento: Nord NE 7.4
30 Agosto 2026 23:45 tempo osservato: Sereno Sereno 22 49 1016 vento: Nord N 5.5
30 Agosto 2026 23:15 tempo osservato: Sereno Sereno 22 49 1016 vento: Nord N 5.5
30 Agosto 2026 22:45 tempo osservato: Sereno Sereno 22 49 1016 vento: Nord N 3.7
30 Agosto 2026 22:15 tempo osservato: Sereno Sereno 23 46 1016 vento: Nord N 1.8
30 Agosto 2026 21:45 tempo osservato: Sereno Sereno 24 43 1016 vento: Nord N 3.7
30 Agosto 2026 21:15 tempo osservato: Sereno Sereno 25 41 1016 vento: Nord N 5.5
30 Agosto 2026 20:45 tempo osservato: Sereno Sereno 25 41 1016 vento: Nord N 5.5
30 Agosto 2026 20:15 tempo osservato: Sereno Sereno 27 36 1016 vento: Nord S/SE 7.4
30 Agosto 2026 19:45 tempo osservato: Sereno Sereno 27 39 1015 vento: Nord S/SE 7.4
30 Agosto 2026 19:15 tempo osservato: Sereno Sereno 29 35 1015 vento: Nord N 5.5
30 Agosto 2026 18:45 tempo osservato: Sereno Sereno 30 33 1015 vento: Nord S/SE 7.4
30 Agosto 2026 18:15 tempo osservato: Sereno Sereno 30 33 1015 vento: Nord S/SE 9.3
30 Agosto 2026 17:45 tempo osservato: Sereno Sereno 31 31 1015 vento: Nord N 7.4
30 Agosto 2026 17:15 tempo osservato: Sereno Sereno 31 33 1015 vento: Nord S/SO 9.3
30 Agosto 2026 16:45 tempo osservato: Sereno Sereno 31 31 1015 vento: Nord S 9.3
30 Agosto 2026 16:15 tempo osservato: Sereno Sereno 31 33 1016 vento: Nord N 5.5
30 Agosto 2026 15:45 tempo osservato: Sereno Sereno 31 33 1016 vento: Nord N 9.3
30 Agosto 2026 15:15 tempo osservato: Sereno Sereno 31 33 1016 vento: Nord N 11.1
30 Agosto 2026 14:45 tempo osservato: Sereno Sereno 31 33 1016 vento: Nord N 9.3
30 Agosto 2026 14:15 tempo osservato: Sereno Sereno 31 33 1017 vento: Nord N 7.4
30 Agosto 2026 13:45 tempo osservato: Sereno Sereno 30 35 1017 vento: Nord N 11.1
30 Agosto 2026 13:15 tempo osservato: Sereno Sereno 30 35 1017 vento: Nord N 11.1
30 Agosto 2026 12:45 tempo osservato: Sereno Sereno 30 37 1017 vento: Nord N 9.3
30 Agosto 2026 12:15 tempo osservato: Sereno Sereno 29 37 1017 vento: Nord N 9.3
30 Agosto 2026 11:45 tempo osservato: Sereno Sereno 29 37 1018 vento: Nord N 7.4
30 Agosto 2026 11:15 tempo osservato: Sereno Sereno 28 37 1018 vento: Nord N 7.4
30 Agosto 2026 10:45 tempo osservato: Sereno Sereno 28 37 1018 vento: Nord SE 9.3
30 Agosto 2026 10:15 tempo osservato: Sereno Sereno 27 39 1018 vento: Nord SE 9.3
30 Agosto 2026 09:45 tempo osservato: Sereno Sereno 26 41 1018 vento: Nord E/SE 9.3
30 Agosto 2026 09:15 tempo osservato: Sereno Sereno 26 39 1018 vento: Nord E/SE 7.4
30 Agosto 2026 08:45 tempo osservato: Sereno Sereno 25 41 1017 vento: Nord E/SE 7.4
30 Agosto 2026 08:15 tempo osservato: Sereno Sereno 24 43 1017 vento: Nord N 5.5
30 Agosto 2026 07:45 tempo osservato: Sereno Sereno 23 46 1017 vento: Nord N 3.7